Halcott Center, New York
Current Conditions -  °F | °C
As of 12:15 PM on Sunday 23 Nov 2014 (Local Time) from KMSV Reporting Station
Overcast Overcast  
Wind Chill: 50°   Ceiling: 7500
Heat Index: 50°   Visibility: 10mi
Dew Point: 27°   Wind: 3mph
Humidity: 40%   Direction: 300°WNW
Pressure: 30.13"   Gusts: NA
Location:  42.1993°N, 74.516°W
Report Text: KMSV 231715Z AUTO 30003KT 10SM FEW048 OVC075 10/M03 A3013 RMK AO1
Loading
Personal Weather Stations






























Interactive Weather Map New forecast layout! Learn more

10-Day Weather Forecast

Advertisements
Track Severe Weather on mobile